createdAt,value
2018-12-31T00:01:30.564Z,27.53
2018-12-31T00:04:12.435Z,24.83
2018-12-31T00:06:54.496Z,27.87
2018-12-31T00:09:36.165Z,29.00
2018-12-31T00:12:17.824Z,26.77
2018-12-31T00:15:00.935Z,25.27
2018-12-31T00:17:43.136Z,29.47
2018-12-31T00:20:25.088Z,28.63
2018-12-31T00:23:07.162Z,28.47
2018-12-31T00:25:49.214Z,34.43
2018-12-31T00:28:31.130Z,26.40
2018-12-31T00:31:13.161Z,23.97
2018-12-31T00:33:53.461Z,31.47
2018-12-31T00:36:42.732Z,26.00
2018-12-31T00:39:24.641Z,28.63
2018-12-31T00:42:06.220Z,37.40
2018-12-31T00:44:47.639Z,27.30
2018-12-31T00:47:29.512Z,26.90
2018-12-31T00:50:11.638Z,25.80
2018-12-31T00:52:53.368Z,36.17
2018-12-31T00:55:35.523Z,23.40
2018-12-31T00:58:17.916Z,24.10
2018-12-31T01:00:59.973Z,26.87
2018-12-31T01:03:41.934Z,24.70
2018-12-31T01:06:23.822Z,25.27
2018-12-31T01:09:05.930Z,24.37
2018-12-31T01:11:46.270Z,25.10
2018-12-31T01:20:38.331Z,25.47
2018-12-31T01:23:19.919Z,26.83
2018-12-31T01:26:01.940Z,23.97
2018-12-31T01:28:43.970Z,32.40
2018-12-31T01:31:25.972Z,30.10
2018-12-31T01:34:07.850Z,30.30
2018-12-31T01:36:49.679Z,27.80
2018-12-31T01:39:31.359Z,25.30
2018-12-31T01:42:13.255Z,33.93
2018-12-31T01:44:55.293Z,30.93
2018-12-31T01:47:37.376Z,29.73
2018-12-31T01:50:19.269Z,35.43
2018-12-31T01:53:00.755Z,29.80
2018-12-31T01:55:43.128Z,29.50
2018-12-31T01:58:24.860Z,33.97
2018-12-31T02:01:06.910Z,31.07
2018-12-31T02:03:49.032Z,31.83
2018-12-31T02:06:30.786Z,32.17
2018-12-31T02:09:12.474Z,41.20
2018-12-31T02:11:54.283Z,30.87
2018-12-31T02:14:34.604Z,28.03
2018-12-31T02:20:30.223Z,29.70
2018-12-31T02:23:12.306Z,30.50
2018-12-31T02:25:54.332Z,27.80
2018-12-31T02:28:36.094Z,25.77
2018-12-31T02:31:18.200Z,31.47
2018-12-31T02:34:00.382Z,37.37
2018-12-31T02:36:42.378Z,32.60
2018-12-31T02:39:23.964Z,28.27
2018-12-31T02:42:06.480Z,29.13
2018-12-31T02:44:48.415Z,33.97
2018-12-31T02:47:31.401Z,29.60
2018-12-31T02:50:13.384Z,33.03
2018-12-31T02:52:55.249Z,31.97
2018-12-31T02:55:36.960Z,33.00
2018-12-31T02:58:19.152Z,31.53
2018-12-31T03:01:00.970Z,29.63
2018-12-31T03:03:42.637Z,30.90
2018-12-31T03:06:24.490Z,29.53
2018-12-31T03:09:06.200Z,29.63
2018-12-31T03:11:48.401Z,35.47
2018-12-31T03:14:30.143Z,30.73
2018-12-31T03:17:12.222Z,28.10
2018-12-31T03:19:54.402Z,32.70
2018-12-31T03:22:36.158Z,26.13
2018-12-31T03:25:18.217Z,30.17
2018-12-31T03:28:00.076Z,30.93
2018-12-31T03:30:42.289Z,32.60
2018-12-31T03:33:24.329Z,28.70
2018-12-31T03:36:06.167Z,31.07
2018-12-31T03:38:47.853Z,28.43
2018-12-31T03:41:30.114Z,22.37
2018-12-31T03:44:12.133Z,25.97
2018-12-31T03:46:55.162Z,28.77
2018-12-31T03:49:37.199Z,33.53
2018-12-31T03:52:19.308Z,32.27
2018-12-31T03:55:00.744Z,21.57
2018-12-31T03:57:43.422Z,25.00
2018-12-31T04:00:25.445Z,24.13
2018-12-31T04:03:07.614Z,23.37
2018-12-31T04:05:49.644Z,25.43
2018-12-31T04:08:31.861Z,25.33
2018-12-31T04:11:14.137Z,24.17
2018-12-31T04:13:54.608Z,18.67
2018-12-31T04:19:52.101Z,21.10
2018-12-31T04:22:34.474Z,19.13
2018-12-31T04:25:16.361Z,22.13
2018-12-31T04:27:58.843Z,27.07
2018-12-31T04:30:41.081Z,21.47
2018-12-31T04:33:22.574Z,21.30
2018-12-31T04:36:04.628Z,21.73
2018-12-31T04:38:46.700Z,20.87
2018-12-31T04:41:28.440Z,22.27
2018-12-31T04:44:10.363Z,19.93
2018-12-31T04:46:52.312Z,22.10
2018-12-31T04:49:34.085Z,23.30
2018-12-31T04:52:16.688Z,21.40
2018-12-31T04:54:58.197Z,17.83
2018-12-31T04:57:39.898Z,20.07
2018-12-31T05:00:21.621Z,19.47
2018-12-31T05:03:03.021Z,16.47
2018-12-31T05:05:45.013Z,20.43
2018-12-31T05:08:26.491Z,20.33
2018-12-31T05:11:08.320Z,24.20
2018-12-31T05:13:50.404Z,17.57
2018-12-31T05:16:32.253Z,19.00
2018-12-31T05:19:14.047Z,17.80
2018-12-31T05:21:55.868Z,20.73
2018-12-31T05:24:37.857Z,21.13
2018-12-31T05:27:19.840Z,19.03
2018-12-31T05:30:01.981Z,17.20
2018-12-31T05:32:43.652Z,15.50
2018-12-31T05:35:25.900Z,16.80
2018-12-31T05:38:07.735Z,23.23
2018-12-31T05:40:49.867Z,18.73
2018-12-31T05:43:32.196Z,18.23
2018-12-31T05:46:14.242Z,17.40
2018-12-31T05:48:56.289Z,18.67
2018-12-31T05:51:38.473Z,18.90
2018-12-31T05:54:20.375Z,19.03
2018-12-31T05:57:02.441Z,18.83
2018-12-31T05:59:44.493Z,18.57
2018-12-31T06:02:26.053Z,16.30
2018-12-31T06:05:07.878Z,20.97
2018-12-31T06:07:49.410Z,23.10
2018-12-31T06:10:31.068Z,26.97
2018-12-31T06:13:12.860Z,21.30
2018-12-31T06:15:54.408Z,20.57
2018-12-31T06:18:36.606Z,18.83
2018-12-31T06:21:18.435Z,15.67
2018-12-31T06:24:00.312Z,19.47
2018-12-31T06:26:41.893Z,16.37
2018-12-31T06:29:23.650Z,15.70
2018-12-31T06:32:05.240Z,19.23
2018-12-31T06:34:47.412Z,16.07
2018-12-31T06:37:29.191Z,14.83
2018-12-31T06:40:11.286Z,18.73
2018-12-31T06:42:53.003Z,16.67
2018-12-31T06:45:35.162Z,17.47
2018-12-31T06:48:17.230Z,17.73
2018-12-31T06:50:59.236Z,14.97
2018-12-31T06:53:41.275Z,15.80
2018-12-31T06:56:23.430Z,13.90
2018-12-31T06:59:05.754Z,17.00
2018-12-31T07:01:47.702Z,16.60
2018-12-31T07:04:29.314Z,15.03
2018-12-31T07:07:11.091Z,16.40
2018-12-31T07:09:52.949Z,12.37
2018-12-31T07:12:34.689Z,14.03
2018-12-31T07:15:16.600Z,18.27
2018-12-31T07:17:58.603Z,19.03
2018-12-31T07:20:40.752Z,11.70
2018-12-31T07:23:22.771Z,16.47
2018-12-31T07:26:04.950Z,22.40
2018-12-31T07:28:47.282Z,17.33
2018-12-31T07:31:29.705Z,11.70
2018-12-31T07:34:11.117Z,12.00
2018-12-31T07:36:53.220Z,12.60
2018-12-31T07:39:35.565Z,15.10
2018-12-31T07:42:17.253Z,13.83
2018-12-31T07:44:59.341Z,14.17
2018-12-31T07:47:41.417Z,12.10
2018-12-31T07:50:23.267Z,17.23
2018-12-31T07:53:05.178Z,15.77
2018-12-31T07:55:46.892Z,14.30
2018-12-31T07:58:28.577Z,13.30
2018-12-31T08:01:10.347Z,11.30
2018-12-31T08:03:52.297Z,13.60
2018-12-31T08:06:34.202Z,9.53
2018-12-31T08:09:16.026Z,14.50
2018-12-31T08:11:58.221Z,10.40
2018-12-31T08:14:40.318Z,10.90
2018-12-31T08:17:22.434Z,12.70
2018-12-31T08:20:04.009Z,12.00
2018-12-31T08:22:45.935Z,11.90
2018-12-31T08:25:27.981Z,13.27
2018-12-31T08:28:10.184Z,8.83
2018-12-31T08:30:52.564Z,13.20
2018-12-31T08:33:34.620Z,13.97
2018-12-31T08:36:16.421Z,9.63
2018-12-31T08:38:58.567Z,12.73
2018-12-31T08:41:40.674Z,14.77
2018-12-31T08:44:22.770Z,15.73
2018-12-31T08:47:04.596Z,11.43
2018-12-31T08:49:46.736Z,10.13
2018-12-31T08:52:28.516Z,10.60
2018-12-31T08:55:10.318Z,13.23
2018-12-31T08:57:52.246Z,9.50
2018-12-31T09:00:34.332Z,10.63
2018-12-31T09:03:16.321Z,9.60
2018-12-31T09:05:58.242Z,10.87
2018-12-31T09:08:40.129Z,11.43
2018-12-31T09:11:22.251Z,25.23
2018-12-31T09:14:04.533Z,9.07
2018-12-31T09:16:46.574Z,19.20
2018-12-31T09:19:28.618Z,13.50
2018-12-31T09:22:10.814Z,7.70
2018-12-31T09:24:52.811Z,9.20
2018-12-31T09:27:34.764Z,9.53
2018-12-31T09:30:16.894Z,8.13
2018-12-31T09:32:58.653Z,10.33
2018-12-31T09:35:40.752Z,8.47
2018-12-31T09:38:22.673Z,8.13
2018-12-31T09:41:04.828Z,9.23
2018-12-31T09:43:46.619Z,8.20
2018-12-31T09:46:28.800Z,8.33
2018-12-31T09:49:10.721Z,10.60
2018-12-31T09:51:52.584Z,9.17
2018-12-31T09:54:34.245Z,15.50
2018-12-31T09:57:16.117Z,8.53
2018-12-31T09:59:58.162Z,8.63
2018-12-31T10:02:39.854Z,8.23
2018-12-31T10:05:21.453Z,9.00
2018-12-31T10:08:03.614Z,14.70
2018-12-31T10:10:45.636Z,8.50
2018-12-31T10:13:29.008Z,8.87
2018-12-31T10:16:11.006Z,6.87
2018-12-31T10:18:52.910Z,6.87
2018-12-31T10:21:40.931Z,6.23
2018-12-31T10:24:19.230Z,6.50
2018-12-31T10:27:01.375Z,7.57
2018-12-31T10:29:43.394Z,7.83
2018-12-31T10:32:25.255Z,7.43
2018-12-31T10:35:07.587Z,9.83
2018-12-31T10:37:49.836Z,9.37
2018-12-31T10:40:31.681Z,12.57
2018-12-31T10:43:13.609Z,9.07
2018-12-31T10:45:55.706Z,7.73
2018-12-31T10:48:37.545Z,7.43
2018-12-31T10:51:19.803Z,11.07
2018-12-31T10:54:01.982Z,13.13
2018-12-31T10:56:44.107Z,7.83
2018-12-31T10:59:26.068Z,11.23
2018-12-31T11:02:08.122Z,9.97
2018-12-31T11:04:50.190Z,10.20
2018-12-31T11:07:32.317Z,8.63
2018-12-31T11:10:14.336Z,9.30
2018-12-31T11:12:56.496Z,8.27
2018-12-31T11:15:38.468Z,9.47
2018-12-31T11:18:20.396Z,14.00
2018-12-31T11:21:02.399Z,12.10
2018-12-31T11:23:44.124Z,9.33
2018-12-31T11:26:26.378Z,20.87
2018-12-31T11:29:08.084Z,12.93
2018-12-31T11:31:50.126Z,11.97
2018-12-31T11:34:32.379Z,13.20
2018-12-31T11:37:14.460Z,9.20
2018-12-31T11:39:56.422Z,13.20
2018-12-31T11:42:38.571Z,8.87
2018-12-31T11:45:20.499Z,9.47
2018-12-31T11:48:02.605Z,12.70
2018-12-31T11:50:42.943Z,10.00
2018-12-31T11:53:32.192Z,8.33
2018-12-31T11:56:13.649Z,7.73
2018-12-31T11:58:55.533Z,10.83
2018-12-31T12:01:37.416Z,12.20
2018-12-31T12:04:19.381Z,12.60
2018-12-31T12:07:01.326Z,10.70
2018-12-31T12:09:43.270Z,10.20
2018-12-31T12:12:24.530Z,10.73
2018-12-31T12:15:06.549Z,10.80
2018-12-31T12:17:49.203Z,9.83
2018-12-31T12:20:31.171Z,11.07
2018-12-31T12:23:12.994Z,9.93
2018-12-31T12:25:55.473Z,9.37
2018-12-31T12:28:37.023Z,15.87
2018-12-31T12:31:18.910Z,10.00
2018-12-31T12:34:01.599Z,10.90
2018-12-31T12:36:43.069Z,16.70
2018-12-31T12:39:25.118Z,10.03
2018-12-31T12:42:06.560Z,8.43
2018-12-31T12:44:48.543Z,12.37
2018-12-31T12:47:30.823Z,10.47
2018-12-31T12:50:12.977Z,10.87
2018-12-31T12:52:54.696Z,9.10
2018-12-31T12:55:36.793Z,9.27
2018-12-31T12:58:18.651Z,9.33
2018-12-31T13:01:00.338Z,14.20
2018-12-31T13:03:42.234Z,12.27
2018-12-31T13:06:24.360Z,11.00
2018-12-31T13:09:06.125Z,8.30
2018-12-31T13:11:48.048Z,10.50
2018-12-31T13:14:29.652Z,13.67
2018-12-31T13:17:11.382Z,8.80
2018-12-31T13:19:53.448Z,6.87
2018-12-31T13:22:35.236Z,8.50
2018-12-31T13:25:17.324Z,7.73
2018-12-31T13:27:59.325Z,10.27
2018-12-31T13:30:41.619Z,8.27
2018-12-31T13:33:23.180Z,9.80
2018-12-31T13:36:05.211Z,10.43
2018-12-31T13:38:46.986Z,7.13
2018-12-31T13:41:29.002Z,9.37
2018-12-31T13:44:10.857Z,7.20
2018-12-31T13:46:52.884Z,8.67
2018-12-31T13:49:35.285Z,8.13
2018-12-31T13:52:17.083Z,6.83
2018-12-31T13:54:58.918Z,6.07
2018-12-31T13:57:41.016Z,9.00
2018-12-31T14:00:23.014Z,12.00
2018-12-31T14:03:05.078Z,11.47
2018-12-31T14:05:47.214Z,9.93
2018-12-31T14:08:29.219Z,12.17
2018-12-31T14:11:09.443Z,8.70
2018-12-31T14:13:58.588Z,7.67
2018-12-31T14:17:01.280Z,6.70
2018-12-31T14:19:43.634Z,6.20
2018-12-31T14:22:25.708Z,7.43
2018-12-31T14:25:07.929Z,8.80
2018-12-31T14:27:49.715Z,7.17
2018-12-31T14:30:31.697Z,10.80
2018-12-31T14:33:14.060Z,7.07
2018-12-31T14:35:55.944Z,12.27
2018-12-31T14:38:38.092Z,7.17
2018-12-31T14:41:20.134Z,10.83
2018-12-31T14:44:02.062Z,11.13
2018-12-31T14:46:44.134Z,7.00
2018-12-31T14:49:26.332Z,9.57
2018-12-31T14:52:08.179Z,10.47
2018-12-31T14:54:50.032Z,10.10
2018-12-31T14:57:32.283Z,13.30
2018-12-31T15:00:14.022Z,9.23
2018-12-31T15:02:56.521Z,8.87
2018-12-31T15:05:38.777Z,11.37
2018-12-31T15:08:20.902Z,10.70
2018-12-31T15:11:03.021Z,10.97
2018-12-31T15:13:45.004Z,14.40
2018-12-31T15:16:27.063Z,15.33
2018-12-31T15:19:09.221Z,21.00
2018-12-31T15:21:51.254Z,11.23
2018-12-31T15:24:33.402Z,13.47
2018-12-31T15:27:15.154Z,12.87
2018-12-31T15:29:57.380Z,15.03
2018-12-31T15:32:39.773Z,15.20
2018-12-31T15:35:21.391Z,13.40
2018-12-31T15:38:02.823Z,13.13
2018-12-31T15:40:44.972Z,11.63
2018-12-31T15:43:26.352Z,12.87
2018-12-31T15:46:08.466Z,13.33
2018-12-31T15:48:50.100Z,12.83
2018-12-31T15:51:32.166Z,16.57
2018-12-31T15:54:14.068Z,20.37
2018-12-31T15:56:55.810Z,17.73
2018-12-31T15:59:38.252Z,17.97
2018-12-31T16:02:20.102Z,17.20
2018-12-31T16:05:02.390Z,20.67
2018-12-31T16:07:45.971Z,22.80
2018-12-31T16:10:26.983Z,25.13
2018-12-31T16:13:08.762Z,18.97
2018-12-31T16:15:50.846Z,23.70
2018-12-31T16:18:32.572Z,23.70
2018-12-31T16:21:14.667Z,21.67
2018-12-31T16:23:56.455Z,24.43
2018-12-31T16:26:38.498Z,36.53
2018-12-31T16:29:20.612Z,28.60
2018-12-31T16:32:02.795Z,22.97
2018-12-31T16:34:44.618Z,26.57
2018-12-31T16:37:26.956Z,20.87
2018-12-31T16:40:09.138Z,23.57
2018-12-31T16:42:51.652Z,23.67
2018-12-31T16:45:33.934Z,30.70
2018-12-31T16:48:16.008Z,35.13
2018-12-31T16:50:58.642Z,39.73
2018-12-31T16:53:41.132Z,38.70
2018-12-31T16:56:23.090Z,45.40
2018-12-31T16:59:04.668Z,34.27
2018-12-31T17:01:46.450Z,64.63
2018-12-31T17:04:29.402Z,77.07
2018-12-31T17:07:11.867Z,84.30
2018-12-31T17:09:53.807Z,68.17
2018-12-31T17:12:35.939Z,36.70
2018-12-31T17:15:18.330Z,39.10
2018-12-31T17:18:00.493Z,31.23
2018-12-31T17:20:42.415Z,24.17
2018-12-31T17:23:23.882Z,28.73
2018-12-31T17:26:04.679Z,24.83
2018-12-31T17:28:53.848Z,27.67
2018-12-31T17:31:35.846Z,31.70
2018-12-31T17:34:18.074Z,30.50
2018-12-31T17:36:59.598Z,31.90
2018-12-31T17:39:41.173Z,22.43
2018-12-31T17:42:22.666Z,20.43
2018-12-31T17:45:04.411Z,22.77
2018-12-31T17:47:46.340Z,27.30
2018-12-31T17:50:28.714Z,27.77
2018-12-31T17:53:10.743Z,25.63
2018-12-31T17:55:52.860Z,25.33
2018-12-31T17:58:34.739Z,26.43
2018-12-31T18:01:16.481Z,21.33
2018-12-31T18:03:58.192Z,22.17
2018-12-31T18:06:40.485Z,25.60
2018-12-31T18:09:21.108Z,28.33
2018-12-31T18:12:02.912Z,28.23
2018-12-31T18:14:44.642Z,23.90
2018-12-31T18:17:26.907Z,29.50
2018-12-31T18:20:09.259Z,23.50
2018-12-31T18:22:51.718Z,22.13
2018-12-31T18:25:33.937Z,32.70
2018-12-31T18:28:16.307Z,24.97
2018-12-31T18:30:58.144Z,24.03
2018-12-31T18:33:39.944Z,23.87
2018-12-31T18:36:21.816Z,24.10
2018-12-31T18:39:04.525Z,33.17
2018-12-31T18:41:46.040Z,30.20
2018-12-31T18:44:28.462Z,25.37
2018-12-31T18:47:10.025Z,38.73
2018-12-31T18:49:51.789Z,35.83
2018-12-31T18:52:33.736Z,31.57
2018-12-31T18:55:15.456Z,48.17
2018-12-31T18:57:57.066Z,41.67
2018-12-31T19:00:39.042Z,41.40
2018-12-31T19:03:21.248Z,34.23
2018-12-31T19:06:03.430Z,85.43
2018-12-31T19:08:45.346Z,284.70
2018-12-31T19:11:27.411Z,218.60
2018-12-31T19:14:09.246Z,107.73
2018-12-31T19:16:50.919Z,71.57
2018-12-31T19:19:33.414Z,119.10
2018-12-31T19:22:15.296Z,59.80
2018-12-31T19:24:57.279Z,58.70
2018-12-31T19:27:39.304Z,91.57
2018-12-31T19:30:21.263Z,72.20
2018-12-31T19:33:03.015Z,63.97
2018-12-31T19:35:44.990Z,70.77
2018-12-31T19:38:26.877Z,57.57
2018-12-31T19:41:09.376Z,61.67
2018-12-31T19:43:51.119Z,54.67
2018-12-31T19:46:33.448Z,47.33
2018-12-31T19:49:15.662Z,44.63
2018-12-31T19:51:57.295Z,60.77
2018-12-31T19:54:39.662Z,66.60
2018-12-31T19:57:21.732Z,54.70
2018-12-31T20:00:03.694Z,71.07
2018-12-31T20:02:45.811Z,48.93
2018-12-31T20:05:27.790Z,51.40
2018-12-31T20:08:09.888Z,46.10
2018-12-31T20:10:52.290Z,39.37
2018-12-31T20:13:34.364Z,30.03
2018-12-31T20:16:16.305Z,32.87
2018-12-31T20:18:58.430Z,33.50
2018-12-31T20:21:40.381Z,33.67
2018-12-31T20:24:22.111Z,28.43
2018-12-31T20:27:04.222Z,31.07
2018-12-31T20:29:46.618Z,32.80
2018-12-31T20:32:28.047Z,33.27
2018-12-31T20:35:10.212Z,34.57
2018-12-31T20:37:52.606Z,47.60
2018-12-31T20:40:34.767Z,40.43
2018-12-31T20:43:16.758Z,35.63
2018-12-31T20:45:59.016Z,36.70
2018-12-31T20:48:41.030Z,40.80
2018-12-31T20:51:22.640Z,36.67
2018-12-31T20:54:05.096Z,38.07
2018-12-31T20:56:46.781Z,55.70
2018-12-31T20:59:28.586Z,40.00
2018-12-31T21:02:10.456Z,37.10
2018-12-31T21:04:52.669Z,37.73
2018-12-31T21:07:34.697Z,34.53
2018-12-31T21:10:16.345Z,33.93
2018-12-31T21:12:58.505Z,30.03
2018-12-31T21:15:40.244Z,34.97
2018-12-31T21:18:22.272Z,29.60
2018-12-31T21:21:04.254Z,33.10
2018-12-31T21:23:46.025Z,33.93
2018-12-31T21:26:27.500Z,39.07
2018-12-31T21:29:09.281Z,38.80
2018-12-31T21:31:51.608Z,36.57
2018-12-31T21:34:33.424Z,36.10
2018-12-31T21:37:15.567Z,34.40
2018-12-31T21:39:57.923Z,39.20
2018-12-31T21:42:40.066Z,40.80
2018-12-31T21:45:22.255Z,50.50
2018-12-31T21:48:03.974Z,48.47
2018-12-31T21:50:46.277Z,45.70
2018-12-31T21:53:28.115Z,40.53
2018-12-31T21:56:10.228Z,48.10
2018-12-31T21:58:52.179Z,42.43
2018-12-31T22:01:34.414Z,50.20
2018-12-31T22:04:16.369Z,52.27
2018-12-31T22:06:58.709Z,47.20
2018-12-31T22:09:40.854Z,46.47
2018-12-31T22:12:23.052Z,42.57
2018-12-31T22:15:07.960Z,48.10
2018-12-31T22:17:49.788Z,40.53
2018-12-31T22:20:31.627Z,48.67
2018-12-31T22:23:13.360Z,45.73
2018-12-31T22:25:55.130Z,49.73
2018-12-31T22:28:37.141Z,64.77
2018-12-31T22:31:19.323Z,68.80
2018-12-31T22:34:01.449Z,47.47
2018-12-31T22:36:43.338Z,51.97
2018-12-31T22:39:25.175Z,53.73
2018-12-31T22:42:06.700Z,47.47
2018-12-31T22:44:48.263Z,58.00
2018-12-31T22:47:30.794Z,61.47
2018-12-31T22:50:12.914Z,65.90
2018-12-31T22:52:54.812Z,103.43
2018-12-31T22:55:36.521Z,105.30
2018-12-31T22:58:18.178Z,53.60
2018-12-31T23:01:01.571Z,53.50
2018-12-31T23:03:43.677Z,60.27
2018-12-31T23:06:25.868Z,262.93
2018-12-31T23:09:07.748Z,750.37
2018-12-31T23:11:49.692Z,621.67
2018-12-31T23:14:31.287Z,896.30
2018-12-31T23:17:13.048Z,975.97
2018-12-31T23:19:54.896Z,916.47
2018-12-31T23:22:36.680Z,799.63
2018-12-31T23:25:18.401Z,843.47
2018-12-31T23:28:00.138Z,706.33
2018-12-31T23:30:42.084Z,733.27
2018-12-31T23:33:24.238Z,518.00
2018-12-31T23:36:06.556Z,440.73
2018-12-31T23:38:48.298Z,968.27
2018-12-31T23:41:30.332Z,390.87
2018-12-31T23:44:12.243Z,351.80
2018-12-31T23:46:54.264Z,275.17
2018-12-31T23:49:36.051Z,291.23
2018-12-31T23:52:17.957Z,228.77
2018-12-31T23:55:00.161Z,209.13
2018-12-31T23:57:42.476Z,209.83
